East Monbo, North Carolina
Current Conditions -  °F | °C
As of 4:55 PM on Friday 31 Oct 2014 (Local Time) from KSVH Reporting Station
Overcast Overcast  
Wind Chill: 55°   Ceiling: 11000
Heat Index: 55°   Visibility: 10mi
Dew Point: 44°   Wind: 0mph
Humidity: 67%   Direction: NA
Pressure: 29.8"   Gusts: NA
Location:  35.8306°N, 80.9003°W
Report Text: KSVH 312055Z AUTO 00000KT 10SM OVC110 13/07 A2980 RMK AO2 T01250065
Loading
Personal Weather Stations






























Interactive Weather Map
Tropical Storm Tracking
New forecast layout! Learn more

10-Day Weather Forecast

Advertisements
Track Severe Weather on mobile